createdAt,value
2018-08-28T00:00:46.781Z,1007.09
2018-08-28T00:01:46.877Z,1007.12
2018-08-28T00:02:46.857Z,1007.12
2018-08-28T00:03:46.804Z,1007.16
2018-08-28T00:04:46.928Z,1007.16
2018-08-28T00:05:46.855Z,1007.19
2018-08-28T00:06:46.860Z,1007.21
2018-08-28T00:07:46.927Z,1007.22
2018-08-28T00:08:46.932Z,1007.24
2018-08-28T00:09:46.862Z,1007.20
2018-08-28T00:10:46.928Z,1007.22
2018-08-28T00:11:46.863Z,1007.23
2018-08-28T00:12:46.861Z,1007.25
2018-08-28T00:13:46.932Z,1007.29
2018-08-28T00:14:46.895Z,1007.29
2018-08-28T00:15:46.878Z,1007.31
2018-08-28T00:16:46.833Z,1007.32
2018-08-28T00:17:46.905Z,1007.36
2018-08-28T00:18:46.903Z,1007.35
2018-08-28T00:19:46.800Z,1007.34
2018-08-28T00:20:46.905Z,1007.37
2018-08-28T00:21:46.840Z,1007.36
2018-08-28T00:22:46.890Z,1007.33
2018-08-28T00:23:46.802Z,1007.34
2018-08-28T00:24:46.970Z,1007.34
2018-08-28T00:25:46.802Z,1007.36
2018-08-28T00:26:46.834Z,1007.34
2018-08-28T00:27:46.802Z,1007.34
2018-08-28T00:28:46.896Z,1007.34
2018-08-28T00:29:46.854Z,1007.36
2018-08-28T00:30:46.894Z,1007.35
2018-08-28T00:31:46.973Z,1007.34
2018-08-28T00:32:46.907Z,1007.35
2018-08-28T00:33:46.958Z,1007.34
2018-08-28T00:34:46.885Z,1007.38
2018-08-28T00:35:46.899Z,1007.38
2018-08-28T00:36:46.883Z,1007.37
2018-08-28T00:37:46.950Z,1007.38
2018-08-28T00:38:46.950Z,1007.41
2018-08-28T00:39:46.886Z,1007.38
2018-08-28T00:40:46.955Z,1007.35
2018-08-28T00:41:46.879Z,1007.37
2018-08-28T00:42:46.952Z,1007.36
2018-08-28T00:43:46.943Z,1007.37
2018-08-28T00:44:46.947Z,1007.37
2018-08-28T00:45:46.929Z,1007.40
2018-08-28T00:46:46.905Z,1007.41
2018-08-28T00:47:46.858Z,1007.35
2018-08-28T00:48:46.948Z,1007.35
2018-08-28T00:49:46.928Z,1007.38
2018-08-28T00:50:46.956Z,1007.37
2018-08-28T00:51:46.933Z,1007.40
2018-08-28T00:52:46.893Z,1007.38
2018-08-28T00:53:46.863Z,1007.40
2018-08-28T00:54:46.941Z,1007.43
2018-08-28T00:55:46.858Z,1007.40
2018-08-28T00:56:46.814Z,1007.43
2018-08-28T00:57:46.912Z,1007.39
2018-08-28T00:58:46.927Z,1007.43
2018-08-28T00:59:46.943Z,1007.42
2018-08-28T01:00:46.913Z,1007.45
2018-08-28T01:01:46.817Z,1007.45
2018-08-28T01:02:46.820Z,1007.47
2018-08-28T01:03:46.850Z,1007.46
2018-08-28T01:04:46.870Z,1007.49
2018-08-28T01:05:46.832Z,1007.48
2018-08-28T01:06:46.938Z,1007.46
2018-08-28T01:07:46.940Z,1007.49
2018-08-28T01:08:46.876Z,1007.46
2018-08-28T01:09:46.851Z,1007.48
2018-08-28T01:10:46.882Z,1007.53
2018-08-28T01:11:46.857Z,1007.51
2018-08-28T01:12:46.967Z,1007.55
2018-08-28T01:13:46.914Z,1007.51
2018-08-28T01:14:47.016Z,1007.54
2018-08-28T01:15:46.918Z,1007.55
2018-08-28T01:16:46.980Z,1007.58
2018-08-28T01:17:46.977Z,1007.55
2018-08-28T01:18:46.907Z,1007.52
2018-08-28T01:19:46.907Z,1007.58
2018-08-28T01:20:46.989Z,1007.56
2018-08-28T01:21:46.981Z,1007.57
2018-08-28T01:22:46.980Z,1007.58
2018-08-28T01:23:46.862Z,1007.58
2018-08-28T01:24:46.887Z,1007.61
2018-08-28T01:25:46.932Z,1007.59
2018-08-28T01:26:46.953Z,1007.58
2018-08-28T01:27:46.971Z,1007.59
2018-08-28T01:28:46.935Z,1007.63
2018-08-28T01:29:46.890Z,1007.61
2018-08-28T01:30:46.882Z,1007.62
2018-08-28T01:31:46.884Z,1007.66
2018-08-28T01:32:46.872Z,1007.62
2018-08-28T01:33:46.988Z,1007.63
2018-08-28T01:34:46.931Z,1007.59
2018-08-28T01:35:46.921Z,1007.59
2018-08-28T01:36:46.946Z,1007.61
2018-08-28T01:37:46.918Z,1007.63
2018-08-28T01:38:46.992Z,1007.63
2018-08-28T01:39:46.924Z,1007.65
2018-08-28T01:40:46.996Z,1007.70
2018-08-28T01:41:46.993Z,1007.69
2018-08-28T01:42:46.998Z,1007.69
2018-08-28T01:43:46.860Z,1007.69
2018-08-28T01:44:46.964Z,1007.72
2018-08-28T01:45:46.895Z,1007.71
2018-08-28T01:46:46.862Z,1007.72
2018-08-28T01:47:46.988Z,1007.76
2018-08-28T01:48:46.971Z,1007.76
2018-08-28T01:49:46.920Z,1007.79
2018-08-28T01:50:46.957Z,1007.81
2018-08-28T01:51:46.972Z,1007.81
2018-08-28T01:52:46.997Z,1007.81
2018-08-28T01:53:47.003Z,1007.80
2018-08-28T01:54:46.935Z,1007.80
2018-08-28T01:55:47.005Z,1007.84
2018-08-28T01:56:46.943Z,1007.81
2018-08-28T01:57:46.937Z,1007.81
2018-08-28T01:58:47.006Z,1007.81
2018-08-28T01:59:46.940Z,1007.79
2018-08-28T02:00:47.011Z,1007.84
2018-08-28T02:01:46.944Z,1007.77
2018-08-28T02:02:46.940Z,1007.78
2018-08-28T02:03:46.894Z,1007.79
2018-08-28T02:04:46.903Z,1007.79
2018-08-28T02:05:46.907Z,1007.77
2018-08-28T02:06:46.875Z,1007.77
2018-08-28T02:07:46.903Z,1007.74
2018-08-28T02:08:46.871Z,1007.76
2018-08-28T02:09:47.040Z,1007.80
2018-08-28T02:10:46.973Z,1007.78
2018-08-28T02:11:46.941Z,1007.75
2018-08-28T02:12:46.964Z,1007.75
2018-08-28T02:13:47.010Z,1007.75
2018-08-28T02:14:46.883Z,1007.77
2018-08-28T02:15:46.967Z,1007.76
2018-08-28T02:16:46.919Z,1007.75
2018-08-28T02:17:46.968Z,1007.76
2018-08-28T02:18:46.958Z,1007.71
2018-08-28T02:19:46.904Z,1007.76
2018-08-28T02:20:46.970Z,1007.73
2018-08-28T02:21:46.927Z,1007.73
2018-08-28T02:22:46.975Z,1007.72
2018-08-28T02:23:47.026Z,1007.71
2018-08-28T02:24:47.039Z,1007.70
2018-08-28T02:25:46.954Z,1007.71
2018-08-28T02:26:46.957Z,1007.72
2018-08-28T02:27:47.028Z,1007.74
2018-08-28T02:28:46.958Z,1007.74
2018-08-28T02:29:47.026Z,1007.78
2018-08-28T02:30:47.032Z,1007.78
2018-08-28T02:31:47.057Z,1007.80
2018-08-28T02:32:47.034Z,1007.79
2018-08-28T02:33:47.057Z,1007.79
2018-08-28T02:34:47.031Z,1007.81
2018-08-28T02:35:46.961Z,1007.81
2018-08-28T02:36:46.965Z,1007.81
2018-08-28T02:37:47.037Z,1007.85
2018-08-28T02:38:47.034Z,1007.88
2018-08-28T02:39:46.973Z,1007.85
2018-08-28T02:40:47.038Z,1007.84
2018-08-28T02:41:46.967Z,1007.88
2018-08-28T02:42:47.046Z,1007.81
2018-08-28T02:43:46.944Z,1007.80
2018-08-28T02:44:46.941Z,1007.83
2018-08-28T02:45:46.939Z,1007.76
2018-08-28T02:46:46.935Z,1007.76
2018-08-28T02:47:47.030Z,1007.76
2018-08-28T02:48:46.947Z,1007.77
2018-08-28T02:49:47.030Z,1007.75
2018-08-28T02:50:46.991Z,1007.78
2018-08-28T02:51:46.955Z,1007.82
2018-08-28T02:52:47.029Z,1007.77
2018-08-28T02:53:46.974Z,1007.83
2018-08-28T02:54:47.049Z,1007.85
2018-08-28T02:55:46.981Z,1007.86
2018-08-28T02:56:46.975Z,1007.87
2018-08-28T02:57:47.053Z,1007.85
2018-08-28T02:58:47.049Z,1007.88
2018-08-28T02:59:46.984Z,1007.91
2018-08-28T03:00:47.050Z,1007.89
2018-08-28T03:01:47.007Z,1007.90
2018-08-28T03:02:47.062Z,1007.91
2018-08-28T03:03:46.934Z,1007.93
2018-08-28T03:04:46.913Z,1007.93
2018-08-28T03:05:47.040Z,1007.95
2018-08-28T03:06:47.012Z,1007.96
2018-08-28T03:07:47.026Z,1007.93
2018-08-28T03:08:47.013Z,1007.96
2018-08-28T03:09:46.986Z,1007.95
2018-08-28T03:10:46.921Z,1007.94
2018-08-28T03:11:46.921Z,1007.95
2018-08-28T03:12:47.014Z,1007.99
2018-08-28T03:13:47.058Z,1007.94
2018-08-28T03:14:46.988Z,1007.93
2018-08-28T03:15:47.067Z,1007.92
2018-08-28T03:16:46.997Z,1007.90
2018-08-28T03:17:47.061Z,1007.97
2018-08-28T03:18:47.002Z,1007.97
2018-08-28T03:19:47.062Z,1007.96
2018-08-28T03:20:46.995Z,1007.99
2018-08-28T03:21:46.999Z,1008.01
2018-08-28T03:22:47.066Z,1008.00
2018-08-28T03:23:47.005Z,1008.06
2018-08-28T03:24:47.067Z,1008.04
2018-08-28T03:25:46.996Z,1008.04
2018-08-28T03:26:47.075Z,1008.02
2018-08-28T03:27:46.999Z,1007.99
2018-08-28T03:28:47.074Z,1007.99
2018-08-28T03:29:47.117Z,1008.05
2018-08-28T03:30:46.996Z,1007.99
2018-08-28T03:31:47.118Z,1007.99
2018-08-28T03:32:47.004Z,1007.96
2018-08-28T03:33:47.020Z,1007.98
2018-08-28T03:34:46.965Z,1008.00
2018-08-28T03:35:47.092Z,1007.99
2018-08-28T03:36:47.015Z,1007.98
2018-08-28T03:37:47.016Z,1007.98
2018-08-28T03:38:46.930Z,1007.98
2018-08-28T03:39:46.934Z,1008.01
2018-08-28T03:40:46.976Z,1008.01
2018-08-28T03:41:47.021Z,1008.00
2018-08-28T03:42:47.036Z,1008.05
2018-08-28T03:43:47.083Z,1007.99
2018-08-28T03:44:47.183Z,1008.10
2018-08-28T03:45:47.008Z,1008.08
2018-08-28T03:46:47.085Z,1008.01
2018-08-28T03:47:47.014Z,1008.03
2018-08-28T03:48:47.084Z,1008.04
2018-08-28T03:49:47.015Z,1008.07
2018-08-28T03:50:47.085Z,1008.05
2018-08-28T03:51:47.028Z,1008.05
2018-08-28T03:52:47.086Z,1008.10
2018-08-28T03:53:47.018Z,1008.08
2018-08-28T03:54:47.094Z,1008.11
2018-08-28T03:55:47.022Z,1008.15
2018-08-28T03:56:47.093Z,1008.15
2018-08-28T03:57:47.091Z,1008.15
2018-08-28T03:58:47.043Z,1008.15
2018-08-28T03:59:47.098Z,1008.11
2018-08-28T04:00:47.024Z,1008.13
2018-08-28T04:01:47.093Z,1008.19
2018-08-28T04:02:47.024Z,1008.17
2018-08-28T04:03:47.050Z,1008.21
2018-08-28T04:04:47.022Z,1008.21
2018-08-28T04:05:47.059Z,1008.20
2018-08-28T04:06:46.951Z,1008.23
2018-08-28T04:07:46.984Z,1008.23
2018-08-28T04:08:47.022Z,1008.25
2018-08-28T04:09:47.083Z,1008.25
2018-08-28T04:10:46.990Z,1008.28
2018-08-28T04:11:47.059Z,1008.25
2018-08-28T04:12:47.009Z,1008.26
2018-08-28T04:13:47.091Z,1008.29
2018-08-28T04:14:47.102Z,1008.29
2018-08-28T04:15:47.044Z,1008.33
2018-08-28T04:16:47.106Z,1008.32
2018-08-28T04:17:47.042Z,1008.35
2018-08-28T04:18:47.104Z,1008.35
2018-08-28T04:19:47.034Z,1008.36
2018-08-28T04:20:47.033Z,1008.36
2018-08-28T04:21:47.109Z,1008.36
2018-08-28T04:22:47.131Z,1008.36
2018-08-28T04:23:47.045Z,1008.36
2018-08-28T04:24:47.043Z,1008.36
2018-08-28T04:25:47.134Z,1008.36
2018-08-28T04:26:47.110Z,1008.36
2018-08-28T04:27:47.044Z,1008.36
2018-08-28T04:28:47.111Z,1008.36
2018-08-28T04:29:47.114Z,1008.36
2018-08-28T04:30:47.132Z,1008.36
2018-08-28T04:31:47.045Z,1008.36
2018-08-28T04:32:47.045Z,1008.36
2018-08-28T04:33:47.117Z,1008.36
2018-08-28T04:34:47.046Z,1008.36
2018-08-28T04:35:47.116Z,1008.36
2018-08-28T04:36:47.061Z,1008.36
2018-08-28T04:37:47.118Z,1008.36
2018-08-28T04:38:47.120Z,1008.36
2018-08-28T04:39:47.050Z,1008.36
2018-08-28T04:40:47.120Z,1008.36
2018-08-28T04:41:47.196Z,1008.36
2018-08-28T04:42:47.057Z,1008.36
2018-08-28T04:43:47.122Z,1008.36
2018-08-28T04:44:47.058Z,1008.36
2018-08-28T04:45:47.335Z,1008.36
2018-08-28T04:46:47.058Z,1008.36
2018-08-28T04:47:47.125Z,1008.36
2018-08-28T04:48:47.091Z,1008.36
2018-08-28T04:49:47.062Z,1008.36
2018-08-28T04:50:47.127Z,1008.36
2018-08-28T04:51:47.128Z,1008.36
2018-08-28T04:52:47.060Z,1008.36
2018-08-28T04:53:47.061Z,1008.36
2018-08-28T04:54:47.106Z,1008.36
2018-08-28T04:55:47.133Z,1008.36
2018-08-28T04:56:47.200Z,1008.36
2018-08-28T04:57:47.132Z,1008.36
2018-08-28T04:58:47.135Z,1008.36
2018-08-28T04:59:47.061Z,1008.36
2018-08-28T05:00:47.164Z,1008.36
2018-08-28T05:01:47.138Z,1008.36
2018-08-28T05:02:47.063Z,1008.36
2018-08-28T05:03:47.144Z,1008.36
2018-08-28T05:04:47.062Z,1008.36
2018-08-28T05:05:47.138Z,1008.36
2018-08-28T05:06:47.069Z,1008.36
2018-08-28T05:07:47.138Z,1008.36
2018-08-28T05:08:47.067Z,1008.36
2018-08-28T05:09:47.142Z,1008.36
2018-08-28T05:10:47.146Z,1008.36
2018-08-28T05:11:47.120Z,1008.36
2018-08-28T05:12:47.145Z,1008.36
2018-08-28T05:13:47.075Z,1008.36
2018-08-28T05:14:47.075Z,1008.36
2018-08-28T05:15:47.247Z,1008.36
2018-08-28T05:16:47.171Z,1008.36
2018-08-28T05:17:47.097Z,1008.36
2018-08-28T05:18:47.154Z,1008.36
2018-08-28T05:19:47.082Z,1008.36
2018-08-28T05:20:47.147Z,1008.36
2018-08-28T05:21:47.085Z,1008.36
2018-08-28T05:22:47.154Z,1008.36
2018-08-28T05:23:47.078Z,1008.36
2018-08-28T05:24:47.152Z,1008.83
2018-08-28T05:25:47.080Z,1008.90
2018-08-28T05:26:47.153Z,1008.85
2018-08-28T05:27:47.078Z,1008.89
2018-08-28T05:28:47.153Z,1008.93
2018-08-28T05:29:47.114Z,1008.93
2018-08-28T05:30:47.152Z,1008.97
2018-08-28T05:31:47.084Z,1008.96
2018-08-28T05:32:47.153Z,1008.93
2018-08-28T05:33:47.159Z,1008.96
2018-08-28T05:34:47.123Z,1008.94
2018-08-28T05:35:47.098Z,1008.97
2018-08-28T05:36:47.035Z,1008.95
2018-08-28T05:37:47.065Z,1008.91
2018-08-28T05:38:47.153Z,1008.96
2018-08-28T05:39:47.172Z,1008.99
2018-08-28T05:40:47.110Z,1008.96
2018-08-28T05:41:47.153Z,1008.97
2018-08-28T05:42:47.128Z,1008.98
2018-08-28T05:43:47.050Z,1009.00
2018-08-28T05:44:47.162Z,1009.01
2018-08-28T05:45:47.094Z,1009.00
2018-08-28T05:46:47.118Z,1009.00
2018-08-28T05:47:47.100Z,1008.99
2018-08-28T05:48:47.167Z,1009.03
2018-08-28T05:49:47.104Z,1009.08
2018-08-28T05:50:47.377Z,1009.07
2018-08-28T05:51:47.170Z,1009.10
2018-08-28T05:52:47.131Z,1009.15
2018-08-28T05:53:47.116Z,1009.09
2018-08-28T05:54:47.174Z,1009.13
2018-08-28T05:55:47.186Z,1009.10
2018-08-28T05:56:47.108Z,1009.10
2018-08-28T05:57:47.174Z,1009.10
2018-08-28T05:58:47.115Z,1009.10
2018-08-28T05:59:47.172Z,1009.15
2018-08-28T06:00:47.107Z,1009.13
2018-08-28T06:01:47.111Z,1009.13
2018-08-28T06:02:47.137Z,1009.18
2018-08-28T06:03:47.179Z,1009.18
2018-08-28T06:04:47.039Z,1009.18
2018-08-28T06:05:47.124Z,1009.22
2018-08-28T06:06:47.081Z,1009.21
2018-08-28T06:07:47.127Z,1009.22
2018-08-28T06:08:47.191Z,1009.23
2018-08-28T06:09:47.056Z,1009.27
2018-08-28T06:10:47.151Z,1009.29
2018-08-28T06:11:47.157Z,1009.30
2018-08-28T06:12:47.081Z,1009.31
2018-08-28T06:13:47.065Z,1009.31
2018-08-28T06:14:47.171Z,1009.32
2018-08-28T06:15:47.145Z,1009.34
2018-08-28T06:16:47.137Z,1009.39
2018-08-28T06:17:47.156Z,1009.38
2018-08-28T06:18:47.073Z,1009.37
2018-08-28T06:19:47.114Z,1009.39
2018-08-28T06:20:47.174Z,1009.41
2018-08-28T06:21:47.156Z,1009.37
2018-08-28T06:22:47.091Z,1009.40
2018-08-28T06:23:47.151Z,1009.39
2018-08-28T06:24:47.193Z,1009.39
2018-08-28T06:25:47.220Z,1009.39
2018-08-28T06:26:47.135Z,1009.40
2018-08-28T06:27:47.150Z,1009.40
2018-08-28T06:28:47.198Z,1009.43
2018-08-28T06:29:47.130Z,1009.45
2018-08-28T06:30:47.197Z,1009.43
2018-08-28T06:31:47.130Z,1009.46
2018-08-28T06:32:47.200Z,1009.48
2018-08-28T06:33:47.140Z,1009.49
2018-08-28T06:34:47.149Z,1009.50
2018-08-28T06:35:47.154Z,1009.49
2018-08-28T06:36:47.076Z,1009.47
2018-08-28T06:37:47.089Z,1009.47
2018-08-28T06:38:47.090Z,1009.47
2018-08-28T06:39:47.167Z,1009.51
2018-08-28T06:40:47.111Z,1009.50
2018-08-28T06:41:47.096Z,1009.50
2018-08-28T06:42:47.185Z,1009.44
2018-08-28T06:43:47.177Z,1009.46
2018-08-28T06:44:47.206Z,1009.50
2018-08-28T06:45:47.139Z,1009.50
2018-08-28T06:46:47.209Z,1009.54
2018-08-28T06:47:47.211Z,1009.50
2018-08-28T06:48:47.266Z,1009.52
2018-08-28T06:49:47.209Z,1009.50
2018-08-28T06:50:47.142Z,1009.49
2018-08-28T06:51:47.215Z,1009.51
2018-08-28T06:52:47.139Z,1009.53
2018-08-28T06:53:47.149Z,1009.50
2018-08-28T06:54:47.213Z,1009.50
2018-08-28T06:55:47.138Z,1009.52
2018-08-28T06:56:47.275Z,1009.48
2018-08-28T06:57:47.217Z,1009.50
2018-08-28T06:58:47.148Z,1009.53
2018-08-28T06:59:47.218Z,1009.52
2018-08-28T07:00:47.146Z,1009.54
2018-08-28T07:01:47.219Z,1009.55
2018-08-28T07:02:47.153Z,1009.58
2018-08-28T07:03:47.249Z,1009.58
2018-08-28T07:04:47.222Z,1009.53
2018-08-28T07:05:47.153Z,1009.57
2018-08-28T07:06:47.222Z,1009.56
2018-08-28T07:07:47.155Z,1009.58
2018-08-28T07:08:47.221Z,1009.61
2018-08-28T07:09:47.150Z,1009.60
2018-08-28T07:10:47.225Z,1009.63
2018-08-28T07:11:47.157Z,1009.60
2018-08-28T07:12:47.224Z,1009.60
2018-08-28T07:13:47.165Z,1009.60
2018-08-28T07:14:47.102Z,1009.61
2018-08-28T07:15:47.212Z,1009.56
2018-08-28T07:16:47.200Z,1009.58
2018-08-28T07:17:47.106Z,1009.58
2018-08-28T07:18:47.228Z,1009.62
2018-08-28T07:19:47.233Z,1009.60
2018-08-28T07:20:47.155Z,1009.61
2018-08-28T07:21:47.190Z,1009.65
2018-08-28T07:22:47.168Z,1009.66
2018-08-28T07:23:47.158Z,1009.64
2018-08-28T07:24:47.143Z,1009.68
2018-08-28T07:25:47.243Z,1009.68
2018-08-28T07:26:47.196Z,1009.71
2018-08-28T07:27:47.128Z,1009.73
2018-08-28T07:28:47.193Z,1009.74
2018-08-28T07:29:47.182Z,1009.73
2018-08-28T07:30:47.124Z,1009.74
2018-08-28T07:31:47.262Z,1009.73
2018-08-28T07:32:47.127Z,1009.77
2018-08-28T07:33:47.108Z,1009.75
2018-08-28T07:34:47.169Z,1009.77
2018-08-28T07:35:47.240Z,1009.78
2018-08-28T07:36:47.167Z,1009.78
2018-08-28T07:37:47.243Z,1009.83
2018-08-28T07:38:47.244Z,1009.79
2018-08-28T07:39:47.219Z,1009.80
2018-08-28T07:40:47.246Z,1009.84
2018-08-28T07:41:47.174Z,1009.82
2018-08-28T07:42:47.279Z,1009.81
2018-08-28T07:43:47.175Z,1009.83
2018-08-28T07:44:47.236Z,1009.85
2018-08-28T07:45:47.238Z,1009.82
2018-08-28T07:46:47.179Z,1009.82
2018-08-28T07:47:47.157Z,1009.82
2018-08-28T07:48:47.228Z,1009.83
2018-08-28T07:49:47.152Z,1009.85
2018-08-28T07:50:47.218Z,1009.82
2018-08-28T07:51:47.216Z,1009.88
2018-08-28T07:52:47.177Z,1009.83
2018-08-28T07:53:47.243Z,1009.81
2018-08-28T07:54:47.252Z,1009.84
2018-08-28T07:55:47.181Z,1009.84
2018-08-28T07:56:47.256Z,1009.86
2018-08-28T07:57:47.186Z,1009.87
2018-08-28T07:58:47.257Z,1009.84
2018-08-28T07:59:47.193Z,1009.87
2018-08-28T08:00:47.259Z,1009.86
2018-08-28T08:01:47.187Z,1009.87
2018-08-28T08:02:47.261Z,1009.89
2018-08-28T08:03:47.188Z,1009.90
2018-08-28T08:04:47.208Z,1009.92
2018-08-28T08:05:47.133Z,1009.90
2018-08-28T08:06:47.151Z,1009.91
2018-08-28T08:07:47.119Z,1009.88
2018-08-28T08:08:47.132Z,1009.89
2018-08-28T08:09:47.204Z,1009.92
2018-08-28T08:10:47.227Z,1009.90
2018-08-28T08:11:47.170Z,1009.90
2018-08-28T08:12:47.226Z,1009.93
2018-08-28T08:13:47.161Z,1009.93
2018-08-28T08:14:47.133Z,1009.92
2018-08-28T08:15:47.328Z,1009.94
2018-08-28T08:16:47.134Z,1009.93
2018-08-28T08:17:47.326Z,1009.92
2018-08-28T08:18:47.207Z,1009.93
2018-08-28T08:19:47.156Z,1009.92
2018-08-28T08:20:47.259Z,1009.92
2018-08-28T08:21:47.241Z,1009.90
2018-08-28T08:22:47.206Z,1009.92
2018-08-28T08:23:47.180Z,1009.87
2018-08-28T08:24:47.277Z,1009.91
2018-08-28T08:25:47.277Z,1009.90
2018-08-28T08:26:47.222Z,1009.85
2018-08-28T08:27:47.233Z,1009.91
2018-08-28T08:28:47.278Z,1009.87
2018-08-28T08:29:47.215Z,1009.89
2018-08-28T08:30:47.213Z,1009.88
2018-08-28T08:31:47.282Z,1009.89
2018-08-28T08:32:47.218Z,1009.86
2018-08-28T08:33:47.289Z,1009.91
2018-08-28T08:34:47.247Z,1009.88
2018-08-28T08:35:47.223Z,1009.87
2018-08-28T08:36:47.208Z,1009.88
2018-08-28T08:37:47.234Z,1009.87
2018-08-28T08:38:47.192Z,1009.86
2018-08-28T08:39:47.168Z,1009.84
2018-08-28T08:40:47.212Z,1009.81
2018-08-28T08:41:47.214Z,1009.82
2018-08-28T08:42:47.176Z,1009.78
2018-08-28T08:43:47.171Z,1009.77
2018-08-28T08:44:47.245Z,1009.78
2018-08-28T08:45:47.291Z,1009.77
2018-08-28T08:46:47.256Z,1009.80
2018-08-28T08:47:47.296Z,1009.80
2018-08-28T08:48:47.223Z,1009.76
2018-08-28T08:49:47.294Z,1009.76
2018-08-28T08:50:47.295Z,1009.80
2018-08-28T08:51:47.295Z,1009.76
2018-08-28T08:52:47.297Z,1009.80
2018-08-28T08:53:47.236Z,1009.81
2018-08-28T08:54:47.364Z,1009.79
2018-08-28T08:55:47.227Z,1009.80
2018-08-28T08:56:47.299Z,1009.80
2018-08-28T08:57:47.227Z,1009.79
2018-08-28T08:58:47.299Z,1009.82
2018-08-28T08:59:47.231Z,1009.80
2018-08-28T09:00:47.304Z,1009.80
2018-08-28T09:01:47.226Z,1009.74
2018-08-28T09:02:47.228Z,1009.77
2018-08-28T09:03:47.230Z,1009.77
2018-08-28T09:04:47.247Z,1009.77
2018-08-28T09:05:47.191Z,1009.78
2018-08-28T09:06:47.206Z,1009.84
2018-08-28T09:07:47.196Z,1009.81
2018-08-28T09:08:47.306Z,1009.80
2018-08-28T09:09:47.268Z,1009.80
2018-08-28T09:10:47.214Z,1009.80
2018-08-28T09:11:47.248Z,1009.80
2018-08-28T09:12:47.315Z,1009.78
2018-08-28T09:13:47.275Z,1009.74
2018-08-28T09:14:47.201Z,1009.79
2018-08-28T09:15:47.315Z,1009.76
2018-08-28T09:16:47.311Z,1009.73
2018-08-28T09:17:47.315Z,1009.76
2018-08-28T09:18:47.246Z,1009.72
2018-08-28T09:19:47.316Z,1009.75
2018-08-28T09:20:47.467Z,1009.71
2018-08-28T09:21:47.239Z,1009.72
2018-08-28T09:22:47.314Z,1009.68
2018-08-28T09:23:47.243Z,1009.67
2018-08-28T09:24:47.188Z,1009.68
2018-08-28T09:25:47.288Z,1009.68
2018-08-28T09:26:47.311Z,1009.66
2018-08-28T09:27:47.228Z,1009.64
2018-08-28T09:28:47.230Z,1009.63
2018-08-28T09:29:47.311Z,1009.60
2018-08-28T09:30:47.320Z,1009.61
2018-08-28T09:31:47.364Z,1009.58
2018-08-28T09:32:47.290Z,1009.61
2018-08-28T09:33:47.221Z,1009.60
2018-08-28T09:34:47.254Z,1009.63
2018-08-28T09:35:47.324Z,1009.59
2018-08-28T09:36:47.252Z,1009.62
2018-08-28T09:37:47.253Z,1009.62
2018-08-28T09:38:47.377Z,1009.56
2018-08-28T09:39:47.255Z,1009.58
2018-08-28T09:40:47.367Z,1009.55
2018-08-28T09:41:47.256Z,1009.59
2018-08-28T09:42:47.256Z,1009.58
2018-08-28T09:43:47.333Z,1009.58
2018-08-28T09:44:47.332Z,1009.58
2018-08-28T09:45:47.256Z,1009.58
2018-08-28T09:46:47.333Z,1009.57
2018-08-28T09:47:47.334Z,1009.60
2018-08-28T09:48:47.261Z,1009.59
2018-08-28T09:49:47.346Z,1009.62
2018-08-28T09:50:47.395Z,1009.67
2018-08-28T09:51:47.339Z,1009.62
2018-08-28T09:52:47.269Z,1009.60
2018-08-28T09:53:47.339Z,1009.59
2018-08-28T09:54:47.262Z,1009.63
2018-08-28T09:55:47.191Z,1009.61
2018-08-28T09:56:47.232Z,1009.61
2018-08-28T09:57:47.166Z,1009.60
2018-08-28T09:58:47.297Z,1009.61
2018-08-28T09:59:47.234Z,1009.59
2018-08-28T10:00:47.282Z,1009.59
2018-08-28T10:01:47.356Z,1009.61
2018-08-28T10:02:47.341Z,1009.62
2018-08-28T10:03:47.233Z,1009.61
2018-08-28T10:04:47.331Z,1009.63
2018-08-28T10:05:47.284Z,1009.64
2018-08-28T10:06:47.284Z,1009.60
2018-08-28T10:07:47.282Z,1009.60
2018-08-28T10:08:47.302Z,1009.58
2018-08-28T10:09:47.242Z,1009.57
2018-08-28T10:10:47.258Z,1009.56
2018-08-28T10:11:47.293Z,1009.56
2018-08-28T10:12:47.290Z,1009.58
2018-08-28T10:13:47.244Z,1009.60
2018-08-28T10:14:47.219Z,1009.55
2018-08-28T10:15:47.279Z,1009.57
2018-08-28T10:16:47.313Z,1009.56
2018-08-28T10:17:47.381Z,1009.52
2018-08-28T10:18:47.221Z,1009.54
2018-08-28T10:19:47.248Z,1009.53
2018-08-28T10:20:47.314Z,1009.52
2018-08-28T10:21:47.302Z,1009.56
2018-08-28T10:22:47.308Z,1009.51
2018-08-28T10:23:47.300Z,1009.48
2018-08-28T10:24:47.230Z,1009.51
2018-08-28T10:25:47.265Z,1009.47
2018-08-28T10:26:47.324Z,1009.50
2018-08-28T10:27:47.265Z,1009.47
2018-08-28T10:28:47.288Z,1009.46
2018-08-28T10:29:47.313Z,1009.47
2018-08-28T10:30:47.310Z,1009.44
2018-08-28T10:31:47.325Z,1009.45
2018-08-28T10:32:47.255Z,1009.45
2018-08-28T10:33:47.269Z,1009.42
2018-08-28T10:34:47.332Z,1009.40
2018-08-28T10:35:47.351Z,1009.43
2018-08-28T10:36:47.242Z,1009.45
2018-08-28T10:37:47.293Z,1009.41
2018-08-28T10:38:47.246Z,1009.39
2018-08-28T10:39:47.324Z,1009.40
2018-08-28T10:40:47.330Z,1009.38
2018-08-28T10:41:47.359Z,1009.35
2018-08-28T10:42:47.359Z,1009.33
2018-08-28T10:43:47.334Z,1009.31
2018-08-28T10:44:47.327Z,1009.25
2018-08-28T10:45:47.308Z,1009.25
2018-08-28T10:46:47.560Z,1009.26
2018-08-28T10:47:47.337Z,1009.24
2018-08-28T10:48:47.398Z,1009.25
2018-08-28T10:49:47.322Z,1009.22
2018-08-28T10:50:47.308Z,1009.29
2018-08-28T10:51:47.381Z,1009.26
2018-08-28T10:52:47.444Z,1009.24
2018-08-28T10:53:47.315Z,1009.25
2018-08-28T10:54:47.403Z,1009.27
2018-08-28T10:55:47.306Z,1009.26
2018-08-28T10:56:47.383Z,1009.28
2018-08-28T10:57:47.331Z,1009.28
2018-08-28T10:58:47.538Z,1009.31
2018-08-28T10:59:47.368Z,1009.28
2018-08-28T11:00:47.318Z,1009.29
2018-08-28T11:01:47.381Z,1009.30
2018-08-28T11:02:47.313Z,1009.32
2018-08-28T11:03:47.387Z,1009.31
2018-08-28T11:04:47.323Z,1009.32
2018-08-28T11:05:47.328Z,1009.31
2018-08-28T11:06:47.364Z,1009.34
2018-08-28T11:07:47.329Z,1009.34
2018-08-28T11:08:47.402Z,1009.35
2018-08-28T11:09:47.330Z,1009.38
2018-08-28T11:10:47.365Z,1009.38
2018-08-28T11:11:47.330Z,1009.42
2018-08-28T11:12:47.334Z,1009.37
2018-08-28T11:13:47.290Z,1009.41
2018-08-28T11:14:47.349Z,1009.38
2018-08-28T11:15:47.395Z,1009.39
2018-08-28T11:16:47.332Z,1009.38
2018-08-28T11:17:47.400Z,1009.38
2018-08-28T11:18:47.327Z,1009.41
2018-08-28T11:19:47.400Z,1009.38
2018-08-28T11:20:47.332Z,1009.36
2018-08-28T11:21:47.337Z,1009.38
2018-08-28T11:22:47.423Z,1009.36
2018-08-28T11:23:47.344Z,1009.35
2018-08-28T11:24:47.403Z,1009.35
2018-08-28T11:25:47.264Z,1009.34
2018-08-28T11:26:47.307Z,1009.35
2018-08-28T11:27:47.366Z,1009.37
2018-08-28T11:28:47.355Z,1009.36
2018-08-28T11:29:47.332Z,1009.38
2018-08-28T11:30:47.261Z,1009.38
2018-08-28T11:31:47.416Z,1009.39
2018-08-28T11:32:47.318Z,1009.42
2018-08-28T11:33:47.337Z,1009.42
2018-08-28T11:34:47.336Z,1009.45
2018-08-28T11:35:47.393Z,1009.42
2018-08-28T11:36:47.410Z,1009.44
2018-08-28T11:37:47.344Z,1009.40
2018-08-28T11:38:47.412Z,1009.41
2018-08-28T11:39:47.421Z,1009.42
2018-08-28T11:40:47.337Z,1009.40
2018-08-28T11:41:47.341Z,1009.40
2018-08-28T11:42:47.418Z,1009.42
2018-08-28T11:43:47.415Z,1009.42
2018-08-28T11:44:47.348Z,1009.46
2018-08-28T11:45:47.418Z,1009.46
2018-08-28T11:46:47.348Z,1009.46
2018-08-28T11:47:47.350Z,1009.47
2018-08-28T11:48:47.425Z,1009.42
2018-08-28T11:49:47.423Z,1009.44
2018-08-28T11:50:47.358Z,1009.43
2018-08-28T11:51:47.423Z,1009.45
2018-08-28T11:52:47.353Z,1009.47
2018-08-28T11:53:47.420Z,1009.45
2018-08-28T11:54:47.425Z,1009.45
2018-08-28T11:55:47.432Z,1009.45
2018-08-28T11:56:47.424Z,1009.44
2018-08-28T11:57:47.305Z,1009.48
2018-08-28T11:58:47.289Z,1009.47
2018-08-28T11:59:47.371Z,1009.48
2018-08-28T12:00:47.338Z,1009.51
2018-08-28T12:01:47.331Z,1009.50
2018-08-28T12:02:47.328Z,1009.51
2018-08-28T12:03:47.369Z,1009.52
2018-08-28T12:04:47.332Z,1009.49
2018-08-28T12:05:47.437Z,1009.51